sensor_id;sensor_type;location;lat;lon;timestamp;P1;durP1;ratioP1;P2;durP2;ratioP2
22995;SDS011;11664;49.774;8.650;2022-11-15T00:02:12;5.47;;;4.97;;
22995;SDS011;11664;49.774;8.650;2022-11-15T00:04:38;4.80;;;4.40;;
22995;SDS011;11664;49.774;8.650;2022-11-15T00:07:04;4.53;;;4.22;;
22995;SDS011;11664;49.774;8.650;2022-11-15T00:09:30;4.80;;;4.38;;
22995;SDS011;11664;49.774;8.650;2022-11-15T00:11:56;4.00;;;3.63;;
22995;SDS011;11664;49.774;8.650;2022-11-15T00:14:22;5.13;;;4.75;;
22995;SDS011;11664;49.774;8.650;2022-11-15T00:16:48;6.75;;;6.25;;
22995;SDS011;11664;49.774;8.650;2022-11-15T00:19:14;5.80;;;4.65;;
22995;SDS011;11664;49.774;8.650;2022-11-15T00:21:40;4.65;;;4.30;;
22995;SDS011;11664;49.774;8.650;2022-11-15T00:24:06;6.18;;;5.45;;
22995;SDS011;11664;49.774;8.650;2022-11-15T00:26:32;8.27;;;7.47;;
22995;SDS011;11664;49.774;8.650;2022-11-15T00:28:58;8.20;;;7.50;;
22995;SDS011;11664;49.774;8.650;2022-11-15T00:31:24;7.57;;;6.97;;
22995;SDS011;11664;49.774;8.650;2022-11-15T00:33:50;7.00;;;6.50;;
22995;SDS011;11664;49.774;8.650;2022-11-15T00:36:16;7.70;;;7.03;;
22995;SDS011;11664;49.774;8.650;2022-11-15T00:38:42;10.48;;;7.00;;
22995;SDS011;11664;49.774;8.650;2022-11-15T00:41:08;7.50;;;6.95;;
22995;SDS011;11664;49.774;8.650;2022-11-15T00:43:35;7.32;;;6.60;;
22995;SDS011;11664;49.774;8.650;2022-11-15T00:46:01;7.80;;;6.93;;
22995;SDS011;11664;49.774;8.650;2022-11-15T00:48:27;6.93;;;6.32;;
22995;SDS011;11664;49.774;8.650;2022-11-15T00:50:53;7.13;;;6.70;;
22995;SDS011;11664;49.774;8.650;2022-11-15T00:53:19;7.38;;;6.75;;
22995;SDS011;11664;49.774;8.650;2022-11-15T00:55:45;6.20;;;5.80;;
22995;SDS011;11664;49.774;8.650;2022-11-15T00:58:11;5.95;;;5.55;;
22995;SDS011;11664;49.774;8.650;2022-11-15T01:00:37;6.65;;;5.93;;
22995;SDS011;11664;49.774;8.650;2022-11-15T01:03:03;5.88;;;5.45;;
22995;SDS011;11664;49.774;8.650;2022-11-15T01:05:29;5.93;;;5.05;;
22995;SDS011;11664;49.774;8.650;2022-11-15T01:07:55;5.10;;;4.70;;
22995;SDS011;11664;49.774;8.650;2022-11-15T01:10:22;8.57;;;5.95;;
22995;SDS011;11664;49.774;8.650;2022-11-15T01:12:48;6.45;;;5.85;;
22995;SDS011;11664;49.774;8.650;2022-11-15T01:15:15;6.30;;;5.88;;
22995;SDS011;11664;49.774;8.650;2022-11-15T01:17:41;6.38;;;5.90;;
22995;SDS011;11664;49.774;8.650;2022-11-15T01:20:07;6.40;;;5.90;;
22995;SDS011;11664;49.774;8.650;2022-11-15T01:22:33;6.20;;;5.80;;
22995;SDS011;11664;49.774;8.650;2022-11-15T01:24:59;5.65;;;5.25;;
22995;SDS011;11664;49.774;8.650;2022-11-15T01:27:25;6.35;;;5.90;;
22995;SDS011;11664;49.774;8.650;2022-11-15T01:29:51;6.40;;;5.90;;
22995;SDS011;11664;49.774;8.650;2022-11-15T01:32:17;6.78;;;6.38;;
22995;SDS011;11664;49.774;8.650;2022-11-15T01:34:43;5.78;;;5.38;;
22995;SDS011;11664;49.774;8.650;2022-11-15T01:37:09;6.10;;;5.70;;
22995;SDS011;11664;49.774;8.650;2022-11-15T01:39:35;7.13;;;6.68;;
22995;SDS011;11664;49.774;8.650;2022-11-15T01:42:01;6.75;;;6.28;;
22995;SDS011;11664;49.774;8.650;2022-11-15T01:46:57;5.53;;;5.13;;
22995;SDS011;11664;49.774;8.650;2022-11-15T01:49:24;5.35;;;4.35;;
22995;SDS011;11664;49.774;8.650;2022-11-15T01:51:50;6.65;;;6.15;;
22995;SDS011;11664;49.774;8.650;2022-11-15T01:54:18;8.65;;;8.05;;
22995;SDS011;11664;49.774;8.650;2022-11-15T01:56:46;8.60;;;8.10;;
22995;SDS011;11664;49.774;8.650;2022-11-15T01:59:13;9.45;;;8.65;;
22995;SDS011;11664;49.774;8.650;2022-11-15T02:01:39;10.95;;;10.25;;
22995;SDS011;11664;49.774;8.650;2022-11-15T02:04:11;10.57;;;9.98;;
22995;SDS011;11664;49.774;8.650;2022-11-15T02:06:38;9.95;;;9.25;;
22995;SDS011;11664;49.774;8.650;2022-11-15T02:09:04;7.63;;;6.93;;
22995;SDS011;11664;49.774;8.650;2022-11-15T02:11:30;5.85;;;5.30;;
22995;SDS011;11664;49.774;8.650;2022-11-15T02:13:57;5.47;;;5.00;;
22995;SDS011;11664;49.774;8.650;2022-11-15T02:16:34;5.38;;;4.97;;
22995;SDS011;11664;49.774;8.650;2022-11-15T02:19:12;5.20;;;4.80;;
22995;SDS011;11664;49.774;8.650;2022-11-15T02:22:02;5.50;;;5.00;;
22995;SDS011;11664;49.774;8.650;2022-11-15T02:27:38;4.68;;;4.28;;
22995;SDS011;11664;49.774;8.650;2022-11-15T02:32:52;5.88;;;5.47;;
22995;SDS011;11664;49.774;8.650;2022-11-15T02:35:28;5.32;;;5.03;;
22995;SDS011;11664;49.774;8.650;2022-11-15T02:40:35;6.35;;;5.75;;
22995;SDS011;11664;49.774;8.650;2022-11-15T02:43:04;6.32;;;5.93;;
22995;SDS011;11664;49.774;8.650;2022-11-15T02:45:53;10.27;;;7.28;;
22995;SDS011;11664;49.774;8.650;2022-11-15T02:48:19;10.07;;;7.15;;
22995;SDS011;11664;49.774;8.650;2022-11-15T02:50:47;7.13;;;6.63;;
22995;SDS011;11664;49.774;8.650;2022-11-15T02:53:13;7.15;;;6.75;;
22995;SDS011;11664;49.774;8.650;2022-11-15T02:55:46;5.35;;;5.05;;
22995;SDS011;11664;49.774;8.650;2022-11-15T03:00:47;5.88;;;5.55;;
22995;SDS011;11664;49.774;8.650;2022-11-15T03:03:27;8.00;;;7.40;;
22995;SDS011;11664;49.774;8.650;2022-11-15T03:08:41;7.55;;;7.05;;
22995;SDS011;11664;49.774;8.650;2022-11-15T03:11:17;6.85;;;6.32;;
22995;SDS011;11664;49.774;8.650;2022-11-15T03:18:50;4.45;;;4.15;;
22995;SDS011;11664;49.774;8.650;2022-11-15T03:21:18;4.45;;;4.10;;
22995;SDS011;11664;49.774;8.650;2022-11-15T03:23:45;4.28;;;3.90;;
22995;SDS011;11664;49.774;8.650;2022-11-15T03:26:13;5.07;;;4.68;;
22995;SDS011;11664;49.774;8.650;2022-11-15T03:28:45;4.57;;;4.05;;
22995;SDS011;11664;49.774;8.650;2022-11-15T03:31:13;4.18;;;3.88;;
22995;SDS011;11664;49.774;8.650;2022-11-15T03:33:58;4.88;;;4.47;;
22995;SDS011;11664;49.774;8.650;2022-11-15T03:36:25;5.47;;;5.05;;
22995;SDS011;11664;49.774;8.650;2022-11-15T03:38:56;5.32;;;4.93;;
22995;SDS011;11664;49.774;8.650;2022-11-15T03:41:35;5.47;;;4.63;;
22995;SDS011;11664;49.774;8.650;2022-11-15T03:44:13;5.53;;;5.13;;
22995;SDS011;11664;49.774;8.650;2022-11-15T03:49:19;5.72;;;5.30;;
22995;SDS011;11664;49.774;8.650;2022-11-15T03:51:48;6.20;;;5.75;;
22995;SDS011;11664;49.774;8.650;2022-11-15T03:54:14;6.00;;;5.60;;
22995;SDS011;11664;49.774;8.650;2022-11-15T03:56:40;5.80;;;5.40;;
22995;SDS011;11664;49.774;8.650;2022-11-15T03:59:06;4.85;;;4.45;;
22995;SDS011;11664;49.774;8.650;2022-11-15T04:01:32;5.70;;;5.30;;
22995;SDS011;11664;49.774;8.650;2022-11-15T04:03:58;5.90;;;5.50;;
22995;SDS011;11664;49.774;8.650;2022-11-15T04:06:24;5.15;;;4.85;;
22995;SDS011;11664;49.774;8.650;2022-11-15T04:08:50;5.45;;;4.93;;
22995;SDS011;11664;49.774;8.650;2022-11-15T04:11:16;5.03;;;4.63;;
22995;SDS011;11664;49.774;8.650;2022-11-15T04:13:42;6.18;;;5.65;;
22995;SDS011;11664;49.774;8.650;2022-11-15T04:16:08;5.00;;;4.70;;
22995;SDS011;11664;49.774;8.650;2022-11-15T04:18:34;5.20;;;4.75;;
22995;SDS011;11664;49.774;8.650;2022-11-15T04:21:00;4.97;;;4.47;;
22995;SDS011;11664;49.774;8.650;2022-11-15T04:23:44;4.38;;;4.07;;
22995;SDS011;11664;49.774;8.650;2022-11-15T04:26:17;5.50;;;4.13;;
22995;SDS011;11664;49.774;8.650;2022-11-15T04:28:44;5.72;;;5.32;;
22995;SDS011;11664;49.774;8.650;2022-11-15T04:31:28;5.40;;;5.00;;
22995;SDS011;11664;49.774;8.650;2022-11-15T04:33:54;5.57;;;5.28;;
22995;SDS011;11664;49.774;8.650;2022-11-15T04:36:21;6.38;;;5.93;;
22995;SDS011;11664;49.774;8.650;2022-11-15T04:39:06;6.35;;;5.80;;
22995;SDS011;11664;49.774;8.650;2022-11-15T04:41:32;6.05;;;5.65;;
22995;SDS011;11664;49.774;8.650;2022-11-15T04:43:58;9.82;;;6.22;;
22995;SDS011;11664;49.774;8.650;2022-11-15T04:46:24;6.55;;;6.03;;
22995;SDS011;11664;49.774;8.650;2022-11-15T04:48:51;5.82;;;5.43;;
22995;SDS011;11664;49.774;8.650;2022-11-15T04:51:17;5.38;;;5.07;;
22995;SDS011;11664;49.774;8.650;2022-11-15T04:53:43;4.75;;;4.38;;
22995;SDS011;11664;49.774;8.650;2022-11-15T04:56:09;5.88;;;5.28;;
22995;SDS011;11664;49.774;8.650;2022-11-15T04:58:35;5.72;;;5.32;;
22995;SDS011;11664;49.774;8.650;2022-11-15T05:01:11;3.85;;;3.65;;
22995;SDS011;11664;49.774;8.650;2022-11-15T05:03:39;5.03;;;4.35;;
22995;SDS011;11664;49.774;8.650;2022-11-15T05:06:24;3.55;;;3.35;;
22995;SDS011;11664;49.774;8.650;2022-11-15T05:08:50;3.70;;;3.42;;
22995;SDS011;11664;49.774;8.650;2022-11-15T05:11:16;4.35;;;3.95;;
22995;SDS011;11664;49.774;8.650;2022-11-15T05:13:42;5.82;;;5.32;;
22995;SDS011;11664;49.774;8.650;2022-11-15T05:16:08;4.63;;;4.32;;
22995;SDS011;11664;49.774;8.650;2022-11-15T05:18:34;5.85;;;5.47;;
22995;SDS011;11664;49.774;8.650;2022-11-15T05:21:04;7.07;;;6.57;;
22995;SDS011;11664;49.774;8.650;2022-11-15T05:23:30;6.47;;;5.53;;
22995;SDS011;11664;49.774;8.650;2022-11-15T05:26:00;6.03;;;5.65;;
22995;SDS011;11664;49.774;8.650;2022-11-15T05:28:26;6.15;;;5.75;;
22995;SDS011;11664;49.774;8.650;2022-11-15T05:30:52;5.05;;;4.65;;
22995;SDS011;11664;49.774;8.650;2022-11-15T05:33:18;6.20;;;5.75;;
22995;SDS011;11664;49.774;8.650;2022-11-15T05:35:46;5.22;;;4.78;;
22995;SDS011;11664;49.774;8.650;2022-11-15T05:38:14;5.07;;;4.28;;
22995;SDS011;11664;49.774;8.650;2022-11-15T05:40:40;4.80;;;4.50;;
22995;SDS011;11664;49.774;8.650;2022-11-15T05:43:06;4.78;;;4.45;;
22995;SDS011;11664;49.774;8.650;2022-11-15T05:45:33;5.75;;;5.35;;
22995;SDS011;11664;49.774;8.650;2022-11-15T05:47:59;6.50;;;6.00;;
22995;SDS011;11664;49.774;8.650;2022-11-15T05:50:26;5.05;;;4.65;;
22995;SDS011;11664;49.774;8.650;2022-11-15T05:52:53;6.18;;;5.68;;
22995;SDS011;11664;49.774;8.650;2022-11-15T05:55:19;7.88;;;7.15;;
22995;SDS011;11664;49.774;8.650;2022-11-15T05:57:46;8.05;;;7.45;;
22995;SDS011;11664;49.774;8.650;2022-11-15T06:00:12;9.00;;;8.45;;
22995;SDS011;11664;49.774;8.650;2022-11-15T06:02:38;9.48;;;8.77;;
22995;SDS011;11664;49.774;8.650;2022-11-15T06:05:04;7.40;;;6.90;;
22995;SDS011;11664;49.774;8.650;2022-11-15T06:07:30;6.38;;;5.97;;
22995;SDS011;11664;49.774;8.650;2022-11-15T06:09:56;6.28;;;5.78;;
22995;SDS011;11664;49.774;8.650;2022-11-15T06:12:22;5.25;;;4.85;;
22995;SDS011;11664;49.774;8.650;2022-11-15T06:14:48;5.22;;;4.82;;
22995;SDS011;11664;49.774;8.650;2022-11-15T06:17:14;4.63;;;4.32;;
22995;SDS011;11664;49.774;8.650;2022-11-15T06:19:40;4.88;;;4.57;;
22995;SDS011;11664;49.774;8.650;2022-11-15T06:22:06;4.72;;;4.18;;
22995;SDS011;11664;49.774;8.650;2022-11-15T06:24:34;5.07;;;4.68;;
22995;SDS011;11664;49.774;8.650;2022-11-15T06:27:00;6.13;;;5.70;;
22995;SDS011;11664;49.774;8.650;2022-11-15T06:29:26;6.28;;;5.65;;
22995;SDS011;11664;49.774;8.650;2022-11-15T06:31:52;4.00;;;3.70;;
22995;SDS011;11664;49.774;8.650;2022-11-15T06:34:18;5.70;;;5.25;;
22995;SDS011;11664;49.774;8.650;2022-11-15T06:36:44;3.80;;;3.50;;
22995;SDS011;11664;49.774;8.650;2022-11-15T06:39:10;3.97;;;3.67;;
22995;SDS011;11664;49.774;8.650;2022-11-15T06:41:36;4.18;;;3.88;;
22995;SDS011;11664;49.774;8.650;2022-11-15T06:44:02;5.78;;;4.72;;
22995;SDS011;11664;49.774;8.650;2022-11-15T06:46:28;5.78;;;4.10;;
22995;SDS011;11664;49.774;8.650;2022-11-15T06:48:54;5.78;;;4.28;;
22995;SDS011;11664;49.774;8.650;2022-11-15T06:51:20;4.43;;;3.97;;
22995;SDS011;11664;49.774;8.650;2022-11-15T06:53:46;7.82;;;3.95;;
22995;SDS011;11664;49.774;8.650;2022-11-15T06:56:12;7.97;;;4.13;;
22995;SDS011;11664;49.774;8.650;2022-11-15T06:58:38;5.55;;;4.20;;
22995;SDS011;11664;49.774;8.650;2022-11-15T07:01:05;4.85;;;4.45;;
22995;SDS011;11664;49.774;8.650;2022-11-15T07:03:34;5.82;;;5.28;;
22995;SDS011;11664;49.774;8.650;2022-11-15T07:06:00;5.07;;;4.68;;
22995;SDS011;11664;49.774;8.650;2022-11-15T07:08:26;4.65;;;4.25;;
22995;SDS011;11664;49.774;8.650;2022-11-15T07:10:53;3.97;;;3.67;;
22995;SDS011;11664;49.774;8.650;2022-11-15T07:13:19;8.68;;;3.65;;
22995;SDS011;11664;49.774;8.650;2022-11-15T07:15:45;4.07;;;3.78;;
22995;SDS011;11664;49.774;8.650;2022-11-15T07:18:11;4.68;;;4.13;;
22995;SDS011;11664;49.774;8.650;2022-11-15T07:20:37;3.55;;;3.25;;
22995;SDS011;11664;49.774;8.650;2022-11-15T07:23:04;8.25;;;3.72;;
22995;SDS011;11664;49.774;8.650;2022-11-15T07:25:31;4.63;;;3.97;;
22995;SDS011;11664;49.774;8.650;2022-11-15T07:27:57;5.18;;;3.92;;
22995;SDS011;11664;49.774;8.650;2022-11-15T07:30:24;4.72;;;4.18;;
22995;SDS011;11664;49.774;8.650;2022-11-15T07:33:08;4.60;;;4.18;;
22995;SDS011;11664;49.774;8.650;2022-11-15T07:35:34;4.60;;;4.22;;
22995;SDS011;11664;49.774;8.650;2022-11-15T07:38:01;4.80;;;4.40;;
22995;SDS011;11664;49.774;8.650;2022-11-15T07:40:30;5.38;;;4.82;;
22995;SDS011;11664;49.774;8.650;2022-11-15T07:43:07;4.88;;;3.72;;
22995;SDS011;11664;49.774;8.650;2022-11-15T07:45:33;5.78;;;4.40;;
22995;SDS011;11664;49.774;8.650;2022-11-15T07:48:00;5.22;;;3.75;;
22995;SDS011;11664;49.774;8.650;2022-11-15T07:50:26;4.63;;;4.32;;
22995;SDS011;11664;49.774;8.650;2022-11-15T07:52:55;3.95;;;3.65;;
22995;SDS011;11664;49.774;8.650;2022-11-15T07:55:21;4.30;;;3.78;;
22995;SDS011;11664;49.774;8.650;2022-11-15T07:57:48;5.60;;;4.45;;
22995;SDS011;11664;49.774;8.650;2022-11-15T08:00:14;8.35;;;4.15;;
22995;SDS011;11664;49.774;8.650;2022-11-15T08:02:40;5.72;;;4.30;;
22995;SDS011;11664;49.774;8.650;2022-11-15T08:05:06;5.60;;;5.10;;
22995;SDS011;11664;49.774;8.650;2022-11-15T08:07:32;7.30;;;4.30;;
22995;SDS011;11664;49.774;8.650;2022-11-15T08:09:59;5.63;;;5.13;;
22995;SDS011;11664;49.774;8.650;2022-11-15T08:12:28;4.95;;;4.43;;
22995;SDS011;11664;49.774;8.650;2022-11-15T08:14:55;6.35;;;5.72;;
22995;SDS011;11664;49.774;8.650;2022-11-15T08:17:22;15.73;;;6.38;;
22995;SDS011;11664;49.774;8.650;2022-11-15T08:19:48;7.00;;;6.32;;
22995;SDS011;11664;49.774;8.650;2022-11-15T08:22:14;5.68;;;5.18;;
22995;SDS011;11664;49.774;8.650;2022-11-15T08:24:40;7.38;;;6.43;;
22995;SDS011;11664;49.774;8.650;2022-11-15T08:27:06;12.15;;;6.55;;
22995;SDS011;11664;49.774;8.650;2022-11-15T08:29:43;7.78;;;7.25;;
22995;SDS011;11664;49.774;8.650;2022-11-15T08:32:10;12.30;;;11.30;;
22995;SDS011;11664;49.774;8.650;2022-11-15T08:34:37;10.80;;;9.98;;
22995;SDS011;11664;49.774;8.650;2022-11-15T08:37:03;8.88;;;8.27;;
22995;SDS011;11664;49.774;8.650;2022-11-15T08:39:29;8.40;;;7.60;;
22995;SDS011;11664;49.774;8.650;2022-11-15T08:41:55;8.10;;;7.10;;
22995;SDS011;11664;49.774;8.650;2022-11-15T08:44:21;10.15;;;9.25;;
22995;SDS011;11664;49.774;8.650;2022-11-15T08:46:48;13.13;;;12.32;;
22995;SDS011;11664;49.774;8.650;2022-11-15T08:49:14;12.38;;;11.48;;
22995;SDS011;11664;49.774;8.650;2022-11-15T08:51:40;12.32;;;11.40;;
22995;SDS011;11664;49.774;8.650;2022-11-15T08:54:06;7.25;;;6.72;;
22995;SDS011;11664;49.774;8.650;2022-11-15T08:56:32;6.30;;;5.68;;
22995;SDS011;11664;49.774;8.650;2022-11-15T08:58:58;8.13;;;7.50;;
22995;SDS011;11664;49.774;8.650;2022-11-15T09:01:24;8.38;;;7.70;;
22995;SDS011;11664;49.774;8.650;2022-11-15T09:03:50;9.00;;;8.15;;
22995;SDS011;11664;49.774;8.650;2022-11-15T09:06:17;8.45;;;7.78;;
22995;SDS011;11664;49.774;8.650;2022-11-15T09:08:43;7.75;;;7.05;;
22995;SDS011;11664;49.774;8.650;2022-11-15T09:11:09;6.45;;;4.63;;
22995;SDS011;11664;49.774;8.650;2022-11-15T09:13:36;5.00;;;4.55;;
22995;SDS011;11664;49.774;8.650;2022-11-15T09:16:02;5.10;;;4.60;;
22995;SDS011;11664;49.774;8.650;2022-11-15T09:18:29;7.18;;;6.57;;
22995;SDS011;11664;49.774;8.650;2022-11-15T09:20:58;8.40;;;5.45;;
22995;SDS011;11664;49.774;8.650;2022-11-15T09:23:25;4.90;;;4.60;;
22995;SDS011;11664;49.774;8.650;2022-11-15T09:25:51;7.75;;;7.22;;
22995;SDS011;11664;49.774;8.650;2022-11-15T09:28:18;8.30;;;7.53;;
22995;SDS011;11664;49.774;8.650;2022-11-15T09:30:44;7.80;;;7.20;;
22995;SDS011;11664;49.774;8.650;2022-11-15T09:33:11;7.05;;;5.60;;
22995;SDS011;11664;49.774;8.650;2022-11-15T09:35:37;7.95;;;7.22;;
22995;SDS011;11664;49.774;8.650;2022-11-15T09:38:04;10.35;;;6.07;;
22995;SDS011;11664;49.774;8.650;2022-11-15T09:40:31;5.15;;;4.75;;
22995;SDS011;11664;49.774;8.650;2022-11-15T09:51:02;4.00;;;3.70;;
22995;SDS011;11664;49.774;8.650;2022-11-15T09:53:31;5.28;;;4.07;;
22995;SDS011;11664;49.774;8.650;2022-11-15T09:55:59;5.05;;;4.63;;
22995;SDS011;11664;49.774;8.650;2022-11-15T09:58:32;5.40;;;4.88;;
22995;SDS011;11664;49.774;8.650;2022-11-15T10:00:59;4.50;;;4.10;;
22995;SDS011;11664;49.774;8.650;2022-11-15T10:03:33;7.10;;;4.35;;
22995;SDS011;11664;49.774;8.650;2022-11-15T10:06:01;6.47;;;4.97;;
22995;SDS011;11664;49.774;8.650;2022-11-15T10:11:18;5.00;;;4.50;;
22995;SDS011;11664;49.774;8.650;2022-11-15T10:13:45;5.63;;;5.22;;
22995;SDS011;11664;49.774;8.650;2022-11-15T10:21:18;8.88;;;8.27;;
22995;SDS011;11664;49.774;8.650;2022-11-15T10:23:45;5.35;;;4.85;;
22995;SDS011;11664;49.774;8.650;2022-11-15T10:26:13;6.65;;;5.10;;
22995;SDS011;11664;49.774;8.650;2022-11-15T10:28:40;6.53;;;4.30;;
22995;SDS011;11664;49.774;8.650;2022-11-15T10:31:26;5.82;;;5.07;;
22995;SDS011;11664;49.774;8.650;2022-11-15T10:34:08;8.98;;;5.03;;
22995;SDS011;11664;49.774;8.650;2022-11-15T10:36:37;5.82;;;5.32;;
22995;SDS011;11664;49.774;8.650;2022-11-15T10:39:03;7.35;;;6.75;;
22995;SDS011;11664;49.774;8.650;2022-11-15T10:41:35;10.18;;;4.93;;
22995;SDS011;11664;49.774;8.650;2022-11-15T10:46:27;6.22;;;5.15;;
22995;SDS011;11664;49.774;8.650;2022-11-15T10:48:53;5.28;;;4.80;;
22995;SDS011;11664;49.774;8.650;2022-11-15T10:51:27;5.13;;;4.25;;
22995;SDS011;11664;49.774;8.650;2022-11-15T10:53:57;6.10;;;4.75;;
22995;SDS011;11664;49.774;8.650;2022-11-15T10:56:24;5.18;;;4.68;;
22995;SDS011;11664;49.774;8.650;2022-11-15T10:58:51;6.03;;;5.07;;
22995;SDS011;11664;49.774;8.650;2022-11-15T11:01:22;6.88;;;5.03;;
22995;SDS011;11664;49.774;8.650;2022-11-15T11:04:01;4.88;;;4.47;;
22995;SDS011;11664;49.774;8.650;2022-11-15T11:06:28;3.85;;;3.55;;
22995;SDS011;11664;49.774;8.650;2022-11-15T11:08:58;3.90;;;3.50;;
22995;SDS011;11664;49.774;8.650;2022-11-15T11:11:24;4.72;;;4.43;;
22995;SDS011;11664;49.774;8.650;2022-11-15T11:13:51;4.93;;;4.63;;
22995;SDS011;11664;49.774;8.650;2022-11-15T11:16:29;4.40;;;4.00;;
22995;SDS011;11664;49.774;8.650;2022-11-15T11:24:34;4.28;;;3.97;;
22995;SDS011;11664;49.774;8.650;2022-11-15T11:42:12;3.47;;;3.25;;
22995;SDS011;11664;49.774;8.650;2022-11-15T11:47:23;3.55;;;3.35;;
22995;SDS011;11664;49.774;8.650;2022-11-15T11:49:54;3.30;;;3.10;;
22995;SDS011;11664;49.774;8.650;2022-11-15T11:54:55;4.07;;;3.88;;
22995;SDS011;11664;49.774;8.650;2022-11-15T12:04:58;5.28;;;3.92;;
22995;SDS011;11664;49.774;8.650;2022-11-15T12:07:29;4.22;;;3.92;;
22995;SDS011;11664;49.774;8.650;2022-11-15T12:09:58;3.92;;;3.35;;
22995;SDS011;11664;49.774;8.650;2022-11-15T12:14:55;3.83;;;3.53;;
22995;SDS011;11664;49.774;8.650;2022-11-15T12:17:23;2.63;;;2.53;;
22995;SDS011;11664;49.774;8.650;2022-11-15T12:19:49;3.30;;;3.00;;
22995;SDS011;11664;49.774;8.650;2022-11-15T12:22:19;2.80;;;2.70;;
22995;SDS011;11664;49.774;8.650;2022-11-15T12:24:49;3.33;;;3.08;;
22995;SDS011;11664;49.774;8.650;2022-11-15T12:29:47;3.55;;;3.35;;
22995;SDS011;11664;49.774;8.650;2022-11-15T12:32:24;6.43;;;2.90;;
22995;SDS011;11664;49.774;8.650;2022-11-15T12:34:51;3.63;;;3.28;;
22995;SDS011;11664;49.774;8.650;2022-11-15T12:43:37;2.95;;;2.80;;
22995;SDS011;11664;49.774;8.650;2022-11-15T12:45:57;3.35;;;3.15;;
22995;SDS011;11664;49.774;8.650;2022-11-15T12:51:00;3.35;;;3.15;;
22995;SDS011;11664;49.774;8.650;2022-11-15T12:53:27;3.47;;;3.20;;
22995;SDS011;11664;49.774;8.650;2022-11-15T12:58:45;2.97;;;2.80;;
22995;SDS011;11664;49.774;8.650;2022-11-15T13:06:48;3.00;;;2.90;;
22995;SDS011;11664;49.774;8.650;2022-11-15T13:12:01;3.17;;;3.00;;
22995;SDS011;11664;49.774;8.650;2022-11-15T13:19:46;3.95;;;3.75;;
22995;SDS011;11664;49.774;8.650;2022-11-15T13:22:12;4.03;;;3.78;;
22995;SDS011;11664;49.774;8.650;2022-11-15T13:24:57;3.67;;;3.47;;
22995;SDS011;11664;49.774;8.650;2022-11-15T13:27:24;3.67;;;3.33;;
22995;SDS011;11664;49.774;8.650;2022-11-15T13:29:50;3.25;;;3.00;;
22995;SDS011;11664;49.774;8.650;2022-11-15T13:32:16;3.60;;;3.30;;
22995;SDS011;11664;49.774;8.650;2022-11-15T13:34:43;3.80;;;3.50;;
22995;SDS011;11664;49.774;8.650;2022-11-15T13:39:46;3.38;;;3.03;;
22995;SDS011;11664;49.774;8.650;2022-11-15T13:42:14;8.10;;;3.05;;
22995;SDS011;11664;49.774;8.650;2022-11-15T13:44:40;3.50;;;3.20;;
22995;SDS011;11664;49.774;8.650;2022-11-15T13:47:20;6.00;;;3.33;;
22995;SDS011;11664;49.774;8.650;2022-11-15T13:49:46;4.90;;;3.30;;
22995;SDS011;11664;49.774;8.650;2022-11-15T13:52:13;3.70;;;3.40;;
22995;SDS011;11664;49.774;8.650;2022-11-15T13:54:43;3.50;;;3.20;;
22995;SDS011;11664;49.774;8.650;2022-11-15T13:57:12;3.67;;;3.17;;
22995;SDS011;11664;49.774;8.650;2022-11-15T13:59:45;4.25;;;3.30;;
22995;SDS011;11664;49.774;8.650;2022-11-15T14:02:17;3.70;;;3.40;;
22995;SDS011;11664;49.774;8.650;2022-11-15T14:04:48;3.78;;;3.58;;
22995;SDS011;11664;49.774;8.650;2022-11-15T14:07:19;3.85;;;3.58;;
22995;SDS011;11664;49.774;8.650;2022-11-15T14:09:45;4.70;;;3.33;;
22995;SDS011;11664;49.774;8.650;2022-11-15T14:12:22;3.40;;;3.20;;
22995;SDS011;11664;49.774;8.650;2022-11-15T14:14:49;3.30;;;3.10;;
22995;SDS011;11664;49.774;8.650;2022-11-15T14:19:59;3.90;;;3.17;;
22995;SDS011;11664;49.774;8.650;2022-11-15T14:22:26;3.38;;;3.10;;
22995;SDS011;11664;49.774;8.650;2022-11-15T14:27:38;3.63;;;3.42;;
22995;SDS011;11664;49.774;8.650;2022-11-15T14:30:04;3.40;;;3.20;;
22995;SDS011;11664;49.774;8.650;2022-11-15T14:32:49;3.38;;;3.17;;
22995;SDS011;11664;49.774;8.650;2022-11-15T14:35:17;3.22;;;3.03;;
22995;SDS011;11664;49.774;8.650;2022-11-15T14:37:43;3.88;;;3.58;;
22995;SDS011;11664;49.774;8.650;2022-11-15T14:40:11;4.13;;;3.83;;
22995;SDS011;11664;49.774;8.650;2022-11-15T14:42:37;5.85;;;3.88;;
22995;SDS011;11664;49.774;8.650;2022-11-15T14:45:09;3.60;;;3.40;;
22995;SDS011;11664;49.774;8.650;2022-11-15T14:47:36;3.92;;;3.55;;
22995;SDS011;11664;49.774;8.650;2022-11-15T14:50:02;4.13;;;3.78;;
22995;SDS011;11664;49.774;8.650;2022-11-15T14:52:29;3.97;;;3.58;;
22995;SDS011;11664;49.774;8.650;2022-11-15T14:55:01;4.47;;;3.72;;
22995;SDS011;11664;49.774;8.650;2022-11-15T14:57:27;4.47;;;4.20;;
22995;SDS011;11664;49.774;8.650;2022-11-15T14:59:53;4.30;;;3.90;;
22995;SDS011;11664;49.774;8.650;2022-11-15T15:02:21;3.55;;;3.35;;
22995;SDS011;11664;49.774;8.650;2022-11-15T15:04:47;7.13;;;6.78;;
22995;SDS011;11664;49.774;8.650;2022-11-15T15:07:13;7.30;;;6.90;;
22995;SDS011;11664;49.774;8.650;2022-11-15T15:09:39;3.28;;;3.08;;
22995;SDS011;11664;49.774;8.650;2022-11-15T15:14:41;3.40;;;3.20;;
22995;SDS011;11664;49.774;8.650;2022-11-15T15:17:07;3.80;;;3.53;;
22995;SDS011;11664;49.774;8.650;2022-11-15T15:19:33;4.00;;;3.80;;
22995;SDS011;11664;49.774;8.650;2022-11-15T15:21:59;2.83;;;2.63;;
22995;SDS011;11664;49.774;8.650;2022-11-15T15:24:25;5.10;;;4.85;;
22995;SDS011;11664;49.774;8.650;2022-11-15T15:26:52;4.97;;;4.68;;
22995;SDS011;11664;49.774;8.650;2022-11-15T15:29:18;6.25;;;5.95;;
22995;SDS011;11664;49.774;8.650;2022-11-15T15:31:44;2.72;;;2.63;;
22995;SDS011;11664;49.774;8.650;2022-11-15T15:34:10;5.20;;;4.70;;
22995;SDS011;11664;49.774;8.650;2022-11-15T15:36:35;6.78;;;6.43;;
22995;SDS011;11664;49.774;8.650;2022-11-15T15:39:02;6.00;;;5.70;;
22995;SDS011;11664;49.774;8.650;2022-11-15T15:41:28;3.85;;;3.65;;
22995;SDS011;11664;49.774;8.650;2022-11-15T15:43:54;3.70;;;3.40;;
22995;SDS011;11664;49.774;8.650;2022-11-15T15:46:20;3.60;;;3.40;;
22995;SDS011;11664;49.774;8.650;2022-11-15T15:48:46;3.15;;;2.95;;
22995;SDS011;11664;49.774;8.650;2022-11-15T15:51:12;3.30;;;3.10;;
22995;SDS011;11664;49.774;8.650;2022-11-15T15:53:38;3.85;;;3.65;;
22995;SDS011;11664;49.774;8.650;2022-11-15T15:56:05;3.03;;;2.83;;
22995;SDS011;11664;49.774;8.650;2022-11-15T15:58:33;3.17;;;2.97;;
22995;SDS011;11664;49.774;8.650;2022-11-15T16:00:59;3.53;;;2.97;;
22995;SDS011;11664;49.774;8.650;2022-11-15T16:03:25;2.67;;;2.58;;
22995;SDS011;11664;49.774;8.650;2022-11-15T16:05:52;3.35;;;3.15;;
22995;SDS011;11664;49.774;8.650;2022-11-15T16:08:19;2.90;;;2.80;;
22995;SDS011;11664;49.774;8.650;2022-11-15T16:10:45;3.05;;;2.90;;
22995;SDS011;11664;49.774;8.650;2022-11-15T16:13:11;3.50;;;3.20;;
22995;SDS011;11664;49.774;8.650;2022-11-15T16:15:37;2.60;;;2.50;;
22995;SDS011;11664;49.774;8.650;2022-11-15T16:18:03;4.13;;;3.03;;
22995;SDS011;11664;49.774;8.650;2022-11-15T16:23:03;2.83;;;2.72;;
22995;SDS011;11664;49.774;8.650;2022-11-15T16:25:30;3.60;;;3.40;;
22995;SDS011;11664;49.774;8.650;2022-11-15T16:27:57;3.15;;;2.95;;
22995;SDS011;11664;49.774;8.650;2022-11-15T16:30:23;3.00;;;2.80;;
22995;SDS011;11664;49.774;8.650;2022-11-15T16:32:49;3.13;;;2.92;;
22995;SDS011;11664;49.774;8.650;2022-11-15T16:35:15;3.65;;;3.45;;
22995;SDS011;11664;49.774;8.650;2022-11-15T16:37:42;4.28;;;3.95;;
22995;SDS011;11664;49.774;8.650;2022-11-15T16:40:20;3.55;;;3.35;;
22995;SDS011;11664;49.774;8.650;2022-11-15T16:42:48;4.30;;;4.05;;
22995;SDS011;11664;49.774;8.650;2022-11-15T16:45:14;5.07;;;4.78;;
22995;SDS011;11664;49.774;8.650;2022-11-15T16:47:40;3.20;;;3.00;;
22995;SDS011;11664;49.774;8.650;2022-11-15T16:50:09;3.95;;;3.72;;
22995;SDS011;11664;49.774;8.650;2022-11-15T16:52:39;3.15;;;2.95;;